Time;durP1;ratioP1;P1;durP2;ratioP2;P2;SDS_P1;SDS_P2;PMS_P1;PMS_P2;Temp;Humidity;BMP_temperature;BMP_pressure;BME280_temperature;BME280_humidity;BME280_pressure;Samples;Min_cycle;Max_cycle;Signal;HPM_P1;HPM_P2
2022/05/15 07:58:50;;;;;;;13.07;8.75;;;;;;;18.17;55.87;101825.97;5129936;28;4852000;-77
2022/05/15 08:01:21;;;;;;;17.42;9.32;;;;;;;18.33;55.16;101829.22;5292266;28;20041;-76
2022/05/15 08:03:52;;;;;;;13.05;9.50;;;;;;;18.33;54.66;101826.41;5293219;28;20025;-77
2022/05/15 08:09:13;;;;;;;15.23;10.23;;;;;;;18.58;54.38;101825.78;5298780;28;20059;-76
2022/05/15 08:11:45;;;;;;;13.80;9.40;;;;;;;18.66;54.12;101813.78;5282655;28;20059;-76
2022/05/15 08:14:17;;;;;;;17.55;9.48;;;;;;;18.75;53.51;101807.38;5280829;28;20035;-74
2022/05/15 08:16:48;;;;;;;13.30;8.30;;;;;;;18.90;52.83;101812.63;5280568;28;20806;-76
2022/05/15 08:25:02;;;;;;;18.42;9.32;;;;;;;19.20;53.03;101796.88;5298997;28;20463;-78
2022/05/15 08:27:34;;;;;;;12.40;8.35;;;;;;;19.39;51.71;101799.41;5299902;28;20020;-78
2022/05/15 08:30:06;;;;;;;20.73;10.52;;;;;;;19.46;51.13;101793.31;5299605;28;20101;-78
2022/05/15 08:32:37;;;;;;;16.33;9.02;;;;;;;19.61;50.48;101792.84;5299825;28;20020;-77
2022/05/15 08:35:08;;;;;;;13.65;8.30;;;;;;;19.69;50.20;101788.44;5288440;28;20044;-78
2022/05/15 08:37:42;;;;;;;15.80;8.63;;;;;;;19.77;49.77;101781.97;5308655;28;20028;-78
2022/05/15 08:40:13;;;;;;;14.32;8.05;;;;;;;19.87;49.73;101783.66;5306867;28;20021;-78
2022/05/15 08:42:56;;;;;;;17.60;9.30;;;;;;;20.02;49.58;101773.84;5279537;28;20028;-78
2022/05/15 08:45:32;;;;;;;14.63;8.63;;;;;;;20.13;48.60;101773.19;5278622;28;20029;-77
2022/05/15 08:48:06;;;;;;;12.93;7.95;;;;;;;20.25;49.36;101769.72;5285962;28;20548;-78
2022/05/15 08:50:48;;;;;;;10.13;8.50;;;;;;;20.39;47.52;101775.16;5292857;28;20077;-78
2022/05/15 08:53:32;;;;;;;15.55;8.35;;;;;;;20.35;46.85;101765.69;5297431;28;20028;-77
2022/05/15 08:56:07;;;;;;;17.10;8.77;;;;;;;20.60;46.98;101761.19;5278752;28;20387;-78
2022/05/15 08:58:44;;;;;;;;;;;;;;;20.67;47.33;101766.34;5279319;28;20077;-78
2022/05/15 09:01:20;;;;;;;11.50;7.70;;;;;;;20.76;45.32;101759.50;5279731;28;19916;-85
2022/05/15 09:03:51;;;;;;;;;;;;;;;20.85;45.50;101760.28;5283773;28;20028;-85
2022/05/15 09:06:28;;;;;;;14.30;7.53;;;;;;;20.91;44.54;101762.91;5303797;28;19919;-78
2022/05/15 09:09:14;;;;;;;19.83;7.75;;;;;;;20.91;43.81;101760.91;5293251;28;20383;-77
2022/05/15 09:11:52;;;;;;;12.20;7.53;;;;;;;21.10;42.98;101749.25;5269665;28;20071;-75
2022/05/15 09:14:40;;;;;;;9.60;6.13;;;;;;;21.17;41.27;101762.81;5264197;28;20151;-75
2022/05/15 09:17:14;;;;;;;12.13;6.43;;;;;;;21.15;42.62;101754.69;5264393;28;20119;-78
2022/05/15 09:19:51;;;;;;;11.55;6.22;;;;;;;21.20;43.03;101764.97;5264700;28;20087;-79
2022/05/15 09:22:32;;;;;;;14.65;6.38;;;;;;;21.23;41.31;101762.28;5272051;28;20032;-75
2022/05/15 09:25:32;;;;;;;11.93;5.80;;;;;;;21.32;41.80;101755.75;5265311;28;20444;-75
2022/05/15 09:28:12;;;;;;;14.00;6.30;;;;;;;21.48;42.20;101765.31;5256701;28;20357;-74
2022/05/15 09:30:50;;;;;;;13.10;5.93;;;;;;;21.48;39.48;101760.50;5265444;28;20028;-77
2022/05/15 09:33:34;;;;;;;12.45;5.95;;;;;;;21.46;39.47;101753.53;5264501;28;20037;-79
2022/05/15 09:36:21;;;;;;;22.58;17.25;;;;;;;21.56;40.43;101755.13;5268037;28;20028;-79
2022/05/15 09:39:11;;;;;;;10.48;6.65;;;;;;;21.68;40.40;101752.41;5268344;28;20047;-78
2022/05/15 09:44:42;;;;;;;13.02;5.30;;;;;;;21.96;39.62;101744.19;5276153;28;20044;-78
2022/05/15 09:47:29;;;;;;;12.02;5.65;;;;;;;21.98;39.50;101735.38;5285228;28;20029;-79
2022/05/15 09:50:00;;;;;;;10.45;4.78;;;;;;;21.93;39.10;101739.22;5284700;28;20027;-78
2022/05/15 09:52:39;;;;;;;12.88;4.63;;;;;;;22.10;38.19;101735.41;5285343;28;20025;-79
2022/05/15 09:55:23;;;;;;;10.73;4.78;;;;;;;22.21;38.53;101735.84;5276076;28;20538;-78
2022/05/15 09:58:15;;;;;;;14.55;6.57;;;;;;;22.19;38.15;101738.16;5263018;28;20044;-78
2022/05/15 10:00:46;;;;;;;12.85;5.30;;;;;;;22.39;37.17;101726.00;5262942;28;20043;-77
2022/05/15 10:03:23;;;;;;;9.73;5.10;;;;;;;22.33;35.75;101736.69;5262395;28;20183;-77
2022/05/15 10:06:03;;;;;;;17.30;6.25;;;;;;;22.41;36.33;101742.63;5266503;28;20020;-77
2022/05/15 10:08:35;;;;;;;10.57;4.32;;;;;;;22.45;35.32;101740.75;5263730;28;20150;-78
2022/05/15 10:11:16;;;;;;;9.90;4.75;;;;;;;22.61;35.10;101730.41;5263582;28;20032;-79
2022/05/15 10:13:54;;;;;;;9.25;3.72;;;;;;;22.57;34.29;101737.94;5265109;28;20376;-78
2022/05/15 10:16:32;;;;;;;6.50;4.25;;;;;;;22.67;33.99;101731.00;5263651;28;20052;-79
2022/05/15 10:19:15;;;;;;;7.80;3.75;;;;;;;22.66;34.02;101735.03;5263757;28;20451;-76
2022/05/15 10:21:58;;;;;;;8.63;4.10;;;;;;;22.77;34.50;101720.06;5274477;28;20020;-74
2022/05/15 10:24:37;;;;;;;9.18;4.25;;;;;;;22.82;34.15;101730.31;5274556;28;20136;-77
2022/05/15 10:27:20;;;;;;;9.30;4.10;;;;;;;22.78;34.44;101729.41;5264498;28;20033;-75
2022/05/15 10:30:13;;;;;;;8.93;4.55;;;;;;;22.80;34.02;101727.00;5274081;28;20029;-75
2022/05/15 10:32:49;;;;;;;13.52;8.68;;;;;;;22.86;33.95;101733.28;5263299;28;20438;-76
2022/05/15 10:35:31;;;;;;;8.07;5.05;;;;;;;22.85;33.58;101721.13;5263304;28;20100;-76
2022/05/15 10:38:15;;;;;;;9.18;4.35;;;;;;;23.03;34.38;101712.44;5262358;28;20037;-77
2022/05/15 10:41:20;;;;;;;9.35;4.05;;;;;;;23.11;33.86;101703.00;5276556;28;20025;-80
2022/05/15 10:44:29;;;;;;;7.87;4.27;;;;;;;23.16;34.39;101711.25;5274146;28;20067;-80
2022/05/15 10:47:13;;;;;;;8.88;4.43;;;;;;;23.11;33.49;101703.84;5269612;28;20032;-78
2022/05/15 10:50:00;;;;;;;10.35;5.15;;;;;;;23.06;33.77;101698.44;5275248;28;20127;-78
2022/05/15 10:52:46;;;;;;;16.67;8.55;;;;;;;23.13;34.31;101697.81;5304333;28;20032;-77
2022/05/15 10:58:57;;;;;;;8.85;4.57;;;;;;;23.29;33.42;101707.25;5261132;28;20530;-85
2022/05/15 11:01:58;;;;;;;9.32;4.45;;;;;;;23.42;33.61;101699.56;5271703;28;20045;-83
2022/05/15 11:04:39;;;;;;;7.28;3.70;;;;;;;23.50;33.50;101695.78;5245825;28;20431;-81
2022/05/15 11:07:56;;;;;;;8.82;3.90;;;;;;;23.58;32.81;101691.16;5279098;28;20035;-84
2022/05/15 11:10:49;;;;;;;7.03;3.50;;;;;;;23.67;31.99;101703.13;5225095;28;20044;-81
2022/05/15 11:13:36;;;;;;;6.07;3.53;;;;;;;23.63;32.91;101699.38;5268957;28;20029;-81
2022/05/15 11:16:18;;;;;;;10.63;4.20;;;;;;;23.63;33.09;101686.06;5269503;28;20036;-82
2022/05/15 11:19:02;;;;;;;11.50;5.45;;;;;;;23.82;32.93;101687.44;5272527;28;20115;-82
2022/05/15 11:21:50;;;;;;;7.20;4.15;;;;;;;23.80;33.26;101681.28;5275194;28;20028;-81
2022/05/15 11:24:48;;;;;;;6.00;3.42;;;;;;;23.95;32.87;101679.69;5268714;28;20421;-83
2022/05/15 11:27:44;;;;;;;6.95;3.90;;;;;;;23.94;31.67;101664.72;5265395;28;20110;-86
2022/05/15 11:30:31;;;;;;;10.00;4.55;;;;;;;24.16;31.99;101663.31;5287514;28;20108;-81
2022/05/15 11:33:09;;;;;;;6.57;3.55;;;;;;;24.17;31.37;101653.63;5286345;28;20401;-80
2022/05/15 11:36:09;;;;;;;11.55;4.32;;;;;;;24.23;32.12;101654.97;5282906;28;20048;-77
2022/05/15 11:38:58;;;;;;;8.25;4.20;;;;;;;24.24;30.30;101650.97;5285904;28;20043;-77
2022/05/15 11:41:38;;;;;;;8.23;3.65;;;;;;;24.19;30.93;101647.59;5294233;28;20020;-78
2022/05/15 11:44:34;;;;;;;6.60;3.70;;;;;;;24.36;29.82;101640.72;5288334;28;20024;-77
2022/05/15 11:47:32;;;;;;;13.10;3.97;;;;;;;24.33;31.12;101639.44;5285946;28;20552;-78
2022/05/15 11:50:51;;;;;;;9.32;3.35;;;;;;;24.51;30.00;101637.09;5288919;28;20031;-79
2022/05/15 11:53:28;;;;;;;10.65;4.07;;;;;;;24.52;28.74;101633.91;5248251;28;20040;-78
2022/05/15 11:56:20;;;;;;;7.22;3.13;;;;;;;24.60;30.15;101632.09;5262472;28;20112;-78
2022/05/15 11:58:54;;;;;;;8.65;4.55;;;;;;;24.68;29.83;101630.25;5271519;28;20124;-78
2022/05/15 12:01:32;;;;;;;6.45;3.33;;;;;;;24.61;30.34;101619.53;5263990;28;20029;-78
2022/05/15 12:04:20;;;;;;;7.05;3.75;;;;;;;24.85;29.54;101620.50;5263307;28;20033;-79
2022/05/15 12:06:57;;;;;;;5.63;3.30;;;;;;;24.84;28.96;101621.72;5289640;28;20038;-78
2022/05/15 12:09:39;;;;;;;6.95;2.92;;;;;;;25.09;29.41;101617.44;5305265;28;20036;-79
2022/05/15 12:12:42;;;;;;;7.72;3.50;;;;;;;25.05;29.51;101621.38;5290778;28;20044;-82
2022/05/15 12:15:16;;;;;;;9.38;4.20;;;;;;;25.23;28.99;101622.63;5287683;28;20163;-81
2022/05/15 12:17:50;;;;;;;7.82;4.00;;;;;;;25.14;29.25;101625.66;5281946;28;20475;-78
2022/05/15 12:20:34;;;;;;;8.20;3.50;;;;;;;25.32;29.44;101619.59;5274018;28;20037;-79
2022/05/15 12:23:16;;;;;;;7.43;4.22;;;;;;;25.33;28.74;101618.38;5261637;28;20372;-78
2022/05/15 12:25:58;;;;;;;5.88;3.90;;;;;;;25.44;28.11;101616.63;5262231;28;20484;-78
2022/05/15 12:28:53;;;;;;;6.18;3.17;;;;;;;25.56;28.31;101615.63;5262865;28;20017;-78
2022/05/15 12:31:32;;;;;;;6.70;3.65;;;;;;;25.57;28.23;101615.28;5260638;28;20032;-78
2022/05/15 12:34:11;;;;;;;30.70;15.90;;;;;;;25.70;27.21;101604.56;5262931;28;20035;-78
2022/05/15 12:36:51;;;;;;;8.35;3.83;;;;;;;25.75;27.47;101603.44;5271208;28;20361;-84
2022/05/15 12:39:25;;;;;;;8.82;4.63;;;;;;;25.82;27.28;101592.19;5282575;28;20031;-79
2022/05/15 12:42:06;;;;;;;8.30;3.13;;;;;;;25.97;27.97;101597.00;5282267;28;20471;-77
2022/05/15 12:44:39;;;;;;;6.75;3.30;;;;;;;25.88;26.70;101590.75;5281847;28;20086;-79
2022/05/15 12:47:21;;;;;;;7.47;3.33;;;;;;;26.01;25.26;101592.22;5284632;28;20025;-79
2022/05/15 12:49:59;;;;;;;8.68;3.85;;;;;;;26.08;26.93;101582.16;5276299;28;20054;-77
2022/05/15 12:52:33;;;;;;;6.30;3.50;;;;;;;26.16;26.68;101572.59;5265837;28;20025;-80
2022/05/15 12:55:29;;;;;;;8.50;3.85;;;;;;;26.32;26.58;101581.78;5266487;28;20096;-79
2022/05/15 12:58:07;;;;;;;4.97;3.25;;;;;;;26.38;26.52;101568.06;5266115;28;20099;-78
2022/05/15 13:00:42;;;;;;;8.27;3.85;;;;;;;26.12;27.34;101566.00;5288838;28;20028;-79
2022/05/15 13:03:24;;;;;;;11.77;4.72;;;;;;;26.12;26.93;101568.84;5277543;28;20020;-79
2022/05/15 13:06:01;;;;;;;6.90;3.17;;;;;;;26.13;26.35;101576.16;5264361;28;20021;-75
2022/05/15 13:08:43;;;;;;;7.53;3.45;;;;;;;26.21;26.11;101569.41;5265369;28;20400;-74
2022/05/15 13:11:21;;;;;;;9.02;3.88;;;;;;;26.33;25.56;101577.75;5265527;28;20116;-79
2022/05/15 13:13:55;;;;;;;7.82;3.60;;;;;;;26.42;26.02;101574.63;5265047;28;20476;-80
2022/05/15 13:19:13;;;;;;;5.53;3.13;;;;;;;26.59;26.07;101571.31;5221396;28;20497;-79
2022/05/15 13:21:49;;;;;;;5.43;3.10;;;;;;;26.59;25.68;101559.91;5203637;28;20034;-80
2022/05/15 13:24:23;;;;;;;8.30;4.35;;;;;;;26.48;25.58;101556.03;5203750;28;20077;-80
2022/05/15 13:26:56;;;;;;;7.68;3.72;;;;;;;26.49;24.95;101556.88;5202714;28;20041;-79
2022/05/15 13:29:33;;;;;;;6.55;3.83;;;;;;;26.70;25.29;101565.78;5221000;28;20038;-78
2022/05/15 13:32:06;;;;;;;8.73;4.30;;;;;;;26.71;24.21;101561.72;5223823;28;20021;-78
2022/05/15 13:34:41;;;;;;;5.80;3.58;;;;;;;26.82;25.36;101565.56;5223131;28;20355;-79
2022/05/15 13:37:37;;;;;;;6.93;3.80;;;;;;;27.03;25.95;101556.50;5223390;28;20026;-79
2022/05/15 13:43:28;;;;;;;6.05;3.45;;;;;;;27.19;24.22;101549.81;5223816;28;20042;-78
2022/05/15 13:46:04;;;;;;;7.63;3.10;;;;;;;27.38;24.17;101545.97;5222532;28;20033;-79
2022/05/15 13:48:55;;;;;;;7.35;3.42;;;;;;;27.42;24.12;101541.94;5222014;28;20028;-79
2022/05/15 13:51:34;;;;;;;6.88;3.53;;;;;;;27.41;24.90;101534.63;5223561;28;20022;-76
2022/05/15 13:54:21;;;;;;;7.70;3.40;;;;;;;27.51;24.35;101527.41;5220763;28;20022;-77
2022/05/15 13:56:55;;;;;;;7.03;3.20;;;;;;;27.53;25.61;101531.53;5222945;28;20034;-77
2022/05/15 13:59:28;;;;;;;7.15;3.55;;;;;;;27.74;25.61;101532.97;5222130;28;20541;-76
2022/05/15 14:02:21;;;;;;;6.55;3.55;;;;;;;27.80;24.97;101531.38;5221798;28;20030;-77
2022/05/15 14:04:59;;;;;;;7.85;3.30;;;;;;;27.77;25.09;101517.09;5222754;28;20029;-77
2022/05/15 14:07:39;;;;;;;6.57;3.45;;;;;;;27.75;25.76;101520.34;5222799;28;20026;-82
2022/05/15 14:10:13;;;;;;;6.07;2.80;;;;;;;27.87;25.66;101510.72;5221627;28;20536;-77
2022/05/15 14:13:03;;;;;;;6.50;3.33;;;;;;;27.73;24.94;101506.47;5222916;28;20478;-77
2022/05/15 14:15:41;;;;;;;6.03;2.92;;;;;;;27.75;25.21;101495.50;5221925;28;20022;-76
2022/05/15 14:18:35;;;;;;;7.35;2.88;;;;;;;27.86;24.83;101509.06;5222137;28;20050;-77
2022/05/15 14:21:13;;;;;;;6.43;3.33;;;;;;;27.89;24.51;101494.88;5202519;28;20026;-78
2022/05/15 14:26:26;;;;;;;8.05;3.03;;;;;;;27.89;23.98;101491.16;5200522;28;20075;-78
2022/05/15 14:28:59;;;;;;;6.72;2.97;;;;;;;27.99;24.13;101490.44;5244686;22;20064;-79
2022/05/15 14:31:38;;;;;;;5.55;2.65;;;;;;;28.13;24.28;101484.88;5253695;22;20087;-78
2022/05/15 14:34:09;;;;;;;5.50;2.78;;;;;;;28.05;25.14;101486.03;5263844;28;20029;-79
2022/05/15 14:36:41;;;;;;;4.50;3.22;;;;;;;28.06;24.12;101484.00;5262821;28;20083;-79
2022/05/15 14:39:13;;;;;;;4.90;2.97;;;;;;;27.97;24.90;101481.50;5263645;28;20029;-79
2022/05/15 14:41:44;;;;;;;5.47;3.00;;;;;;;28.10;24.52;101474.28;5263805;28;20028;-78
2022/05/15 14:44:15;;;;;;;3.85;2.90;;;;;;;27.94;24.04;101479.41;5263040;28;20162;-78
2022/05/15 14:46:48;;;;;;;6.13;2.72;;;;;;;27.97;24.46;101470.09;5263342;28;20021;-77
2022/05/15 14:49:20;;;;;;;11.23;3.13;;;;;;;27.77;25.01;101460.13;5256985;28;20022;-79
2022/05/15 14:51:52;;;;;;;4.25;3.05;;;;;;;27.53;25.14;101473.69;5241877;28;20372;-78
2022/05/15 14:54:24;;;;;;;5.80;2.60;;;;;;;27.53;24.45;101463.16;5251631;28;20027;-79
2022/05/15 14:56:59;;;;;;;9.05;2.67;;;;;;;27.48;25.62;101454.13;5263163;28;20029;-78
2022/05/15 14:59:34;;;;;;;6.45;2.80;;;;;;;27.32;25.47;101449.50;5262266;28;20388;-78
2022/05/15 15:02:07;;;;;;;5.30;3.50;;;;;;;27.53;25.27;101448.91;5263308;28;20017;-78
2022/05/15 15:04:48;;;;;;;7.90;3.30;;;;;;;27.42;24.91;101452.84;5262201;28;20468;-78
2022/05/15 15:07:19;;;;;;;6.53;3.40;;;;;;;27.16;26.14;101454.56;5263163;28;20033;-79
2022/05/15 15:09:51;;;;;;;8.77;4.60;;;;;;;27.28;25.10;101451.50;5263721;28;20035;-77
2022/05/15 15:12:24;;;;;;;7.15;3.20;;;;;;;27.21;25.43;101444.91;5262872;28;20021;-77
2022/05/15 15:14:55;;;;;;;6.63;3.05;;;;;;;27.12;25.05;101442.31;5263576;28;20463;-78
2022/05/15 15:17:26;;;;;;;4.38;2.70;;;;;;;26.96;25.07;101438.88;5264793;28;20036;-79
2022/05/15 15:19:57;;;;;;;5.80;3.63;;;;;;;27.04;25.89;101437.75;5249570;28;20033;-79
2022/05/15 15:22:31;;;;;;;7.68;5.22;;;;;;;26.94;26.26;101441.28;5242615;28;20109;-80
2022/05/15 15:25:03;;;;;;;6.15;3.90;;;;;;;26.87;26.09;101428.63;5246585;28;20025;-78
2022/05/15 15:27:35;;;;;;;5.30;4.00;;;;;;;26.93;26.92;101428.28;5261962;28;20033;-79
2022/05/15 15:30:07;;;;;;;5.35;2.80;;;;;;;26.94;26.35;101424.22;5262388;28;20021;-78
2022/05/15 15:32:41;;;;;;;5.72;3.15;;;;;;;26.96;26.67;101421.81;5280255;28;20105;-78
2022/05/15 15:35:13;;;;;;;4.65;2.85;;;;;;;27.07;26.79;101411.34;5275540;28;20040;-80
2022/05/15 15:40:34;;;;;;;5.43;2.72;;;;;;;27.00;26.08;101405.59;5279273;28;20036;-77
2022/05/15 15:43:05;;;;;;;6.68;2.65;;;;;;;26.84;26.52;101403.81;5283371;28;20021;-79
2022/05/15 15:45:37;;;;;;;8.45;2.50;;;;;;;27.02;26.39;101392.63;5285197;28;20016;-82
2022/05/15 15:48:11;;;;;;;4.43;3.20;;;;;;;26.79;26.63;101401.31;5283765;28;20020;-82
2022/05/15 15:50:43;;;;;;;5.28;2.92;;;;;;;26.71;27.13;101393.03;5274422;28;20021;-80
2022/05/15 15:53:17;;;;;;;4.60;2.80;;;;;;;26.71;27.37;101390.19;5263656;28;20024;-82
2022/05/15 15:55:49;;;;;;;4.35;3.33;;;;;;;26.72;27.33;101386.16;5261515;28;20047;-81
2022/05/15 15:58:20;;;;;;;6.43;4.57;;;;;;;26.73;27.53;101379.25;5282446;28;20115;-83
2022/05/15 16:00:52;;;;;;;4.68;2.85;;;;;;;26.69;27.52;101379.22;5282316;28;20593;-79
2022/05/15 16:03:23;;;;;;;4.97;3.20;;;;;;;26.72;27.36;101381.28;5283206;28;20032;-78
2022/05/15 16:05:57;;;;;;;8.82;3.35;;;;;;;26.84;27.68;101380.19;5272151;28;20028;-78
2022/05/15 16:08:28;;;;;;;4.80;3.13;;;;;;;26.75;26.39;101383.34;5261438;28;20473;-78
2022/05/15 16:11:08;;;;;;;6.13;3.03;;;;;;;26.75;26.17;101371.97;5262105;28;20074;-76
2022/05/15 16:13:40;;;;;;;4.60;2.53;;;;;;;26.87;26.33;101366.03;5262180;28;20040;-76
2022/05/15 16:16:11;;;;;;;5.75;3.47;;;;;;;26.86;27.14;101357.88;5261402;28;20021;-77
2022/05/15 16:18:42;;;;;;;6.35;3.13;;;;;;;27.14;26.39;101365.88;5260540;28;20033;-79
2022/05/15 16:21:21;;;;;;;7.20;2.97;;;;;;;26.95;27.03;101358.38;5265585;28;20032;-79
2022/05/15 16:23:55;;;;;;;5.40;2.70;;;;;;;27.01;26.93;101351.13;5284111;28;20383;-78
2022/05/15 16:26:27;;;;;;;5.50;3.70;;;;;;;27.10;27.25;101347.97;5279781;28;20472;-77
2022/05/15 16:28:59;;;;;;;5.95;3.25;;;;;;;26.98;27.69;101346.22;5265350;28;20286;-76
2022/05/15 16:31:30;;;;;;;5.40;3.33;;;;;;;27.10;27.46;101347.97;5266322;28;20404;-78
2022/05/15 16:34:02;;;;;;;8.02;3.88;;;;;;;27.11;27.40;101344.72;5267426;28;20031;-77
2022/05/15 16:36:34;;;;;;;7.43;3.10;;;;;;;27.17;27.00;101336.63;5285841;28;20024;-78
2022/05/15 16:39:05;;;;;;;4.55;3.30;;;;;;;27.15;26.46;101338.25;5286352;28;20021;-77
2022/05/15 16:41:37;;;;;;;4.53;3.10;;;;;;;27.09;26.63;101334.94;5286522;28;20518;-76
2022/05/15 16:44:08;;;;;;;10.02;3.42;;;;;;;27.04;26.28;101332.44;5270844;28;20115;-77
2022/05/15 16:46:39;;;;;;;4.00;2.70;;;;;;;27.06;26.54;101339.38;5265754;28;20087;-77
2022/05/15 16:49:10;;;;;;;26.90;14.07;;;;;;;27.09;26.64;101340.63;5265312;28;20377;-77
2022/05/15 16:51:42;;;;;;;6.65;2.72;;;;;;;27.06;26.20;101335.72;5264758;28;20468;-76
2022/05/15 16:54:13;;;;;;;5.00;3.05;;;;;;;27.18;26.76;101332.63;5265948;28;20029;-76
2022/05/15 16:56:44;;;;;;;6.10;3.03;;;;;;;27.31;26.69;101324.59;5263510;28;20036;-77
2022/05/15 16:59:16;;;;;;;4.72;3.33;;;;;;;27.49;26.53;101319.06;5276705;28;20028;-77
2022/05/15 17:01:51;;;;;;;6.85;2.50;;;;;;;27.27;26.53;101318.88;5264957;28;20021;-78
2022/05/15 17:04:22;;;;;;;8.95;3.55;;;;;;;27.21;27.32;101322.47;5285336;28;20380;-78
2022/05/15 17:06:54;;;;;;;4.82;2.67;;;;;;;27.21;26.57;101314.75;5286028;28;20028;-77
2022/05/15 17:09:25;;;;;;;6.43;3.55;;;;;;;27.08;27.23;101313.38;5286202;28;20376;-78
2022/05/15 17:11:58;;;;;;;6.50;3.03;;;;;;;27.06;26.70;101315.81;5285521;28;20028;-78
2022/05/15 17:14:29;;;;;;;9.85;3.88;;;;;;;26.94;27.17;101301.84;5285806;28;20032;-77
2022/05/15 17:17:01;;;;;;;7.80;3.10;;;;;;;27.09;27.02;101306.47;5279139;28;20035;-78
2022/05/15 17:19:34;;;;;;;4.50;2.78;;;;;;;27.05;26.87;101306.44;5245708;28;20025;-78
2022/05/15 17:22:05;;;;;;;4.38;2.25;;;;;;;26.97;27.27;101307.59;5244667;28;20029;-78
2022/05/15 17:24:37;;;;;;;4.13;2.53;;;;;;;27.04;27.14;101312.53;5244419;28;20480;-79
2022/05/15 17:27:08;;;;;;;4.15;2.60;;;;;;;26.88;26.88;101301.41;5243449;28;20029;-78
